Terminal Aerodrome Forecast
Issued by NWS

Home | Current Version | Previous Version | Text Only | Print | Product List | Glossary On
Versions: 1 2 3 4 5 6 7 8 9 10 11 12 13 14 15 16 17 18 19 20 21 22
000
FTUS45 KABQ 271100 RRA
TAFFMN
TAF
KFMN 271143Z 2712/2812 26008KT 6SM BR OVC006
      TEMPO 2712/2715 3SM BR OVC015
     FM271500 13005KT P6SM OVC015
     FM272000 13008KT 4SM -SNRA BR SCT009 OVC020
     FM272300 09008KT 2SM -SN BR BKN009 OVC015
     FM280800 12008KT 5SM -SHSN BR SCT009 OVC025=

USA.gov is the U.S. government's official web portal to all federal, state and local government web resources and services.